Time;durP1;ratioP1;P1;durP2;ratioP2;P2;SDS_P1;SDS_P2;PMS_P1;PMS_P2;Temp;Humidity;BMP_temperature;BMP_pressure;BME280_temperature;BME280_humidity;BME280_pressure;Samples;Min_cycle;Max_cycle;Signal;HPM_P1;HPM_P2
2021/06/08 00:01:41;;;;;;;11.60;7.88;;;;;;;20.40;76.23;100645.00;5082762;28;20885;-62
2021/06/08 00:04:08;;;;;;;12.40;7.55;;;;;;;20.51;75.88;100633.53;5080061;28;20169;-62
2021/06/08 00:06:35;;;;;;;10.45;7.10;;;;;;;20.53;75.28;100649.28;5079117;28;20032;-62
2021/06/08 00:09:02;;;;;;;9.90;7.30;;;;;;;20.42;75.58;100645.69;5082689;28;20048;-62
2021/06/08 00:11:28;;;;;;;7.07;6.38;;;;;;;20.49;75.03;100648.69;5082245;28;20036;-63
2021/06/08 00:13:55;;;;;;;8.27;7.30;;;;;;;20.43;76.04;100649.19;5081568;28;20040;-64
2021/06/08 00:16:22;;;;;;;20.48;10.10;;;;;;;20.23;76.03;100653.50;5076802;28;20045;-63
2021/06/08 00:18:49;;;;;;;13.02;6.60;;;;;;;20.30;75.46;100645.91;5079558;28;20040;-63
2021/06/08 00:21:16;;;;;;;7.85;6.57;;;;;;;20.39;76.05;100647.75;5077891;28;20380;-63
2021/06/08 00:23:42;;;;;;;8.05;6.55;;;;;;;20.39;76.13;100650.41;5079717;28;20093;-63
2021/06/08 00:26:09;;;;;;;7.78;7.03;;;;;;;20.42;75.88;100655.44;5077454;28;20058;-63
2021/06/08 00:28:36;;;;;;;8.50;7.00;;;;;;;20.39;76.10;100655.69;5081052;28;20149;-63
2021/06/08 00:31:03;;;;;;;6.93;6.22;;;;;;;20.36;75.93;100656.81;5079054;28;20044;-63
2021/06/08 00:33:30;;;;;;;7.35;5.68;;;;;;;20.41;75.84;100659.06;5080400;28;20044;-63
2021/06/08 00:35:56;;;;;;;5.65;5.10;;;;;;;20.40;75.71;100655.59;5080747;28;20436;-63
2021/06/08 00:38:23;;;;;;;6.00;5.45;;;;;;;20.42;75.77;100661.56;5083058;28;20051;-63
2021/06/08 00:40:50;;;;;;;11.43;5.68;;;;;;;20.40;75.67;100666.19;5083542;28;20040;-62
2021/06/08 00:43:23;;;;;;;5.65;5.15;;;;;;;20.39;75.08;100658.34;5080891;28;20044;-62
2021/06/08 00:45:52;;;;;;;8.97;5.90;;;;;;;20.44;74.76;100665.91;5081929;28;20482;-62
2021/06/08 00:48:20;;;;;;;7.57;5.65;;;;;;;20.37;75.08;100661.13;5081357;28;20040;-62
2021/06/08 00:50:47;;;;;;;17.33;6.90;;;;;;;20.36;75.33;100666.56;5082548;28;20078;-62
2021/06/08 00:53:14;;;;;;;9.65;5.55;;;;;;;20.32;76.22;100663.31;5078687;28;20097;-62
2021/06/08 00:55:41;;;;;;;5.60;5.10;;;;;;;20.29;76.42;100652.97;5085246;28;20082;-62
2021/06/08 00:58:08;;;;;;;17.23;5.53;;;;;;;20.35;76.22;100656.94;5081063;28;20040;-63
2021/06/08 01:00:36;;;;;;;6.65;5.90;;;;;;;20.34;76.21;100648.13;5079220;28;20085;-62
2021/06/08 01:03:03;;;;;;;6.90;5.38;;;;;;;20.33;76.34;100648.28;5081044;28;20040;-62
2021/06/08 01:05:31;;;;;;;6.68;5.53;;;;;;;20.33;76.61;100651.75;5083135;28;20036;-63
2021/06/08 01:07:57;;;;;;;6.30;5.70;;;;;;;20.33;76.52;100642.97;5081982;28;20433;-63
2021/06/08 01:10:24;;;;;;;13.05;7.05;;;;;;;20.35;76.70;100644.53;5084416;28;20490;-63
2021/06/08 01:12:51;;;;;;;9.02;6.50;;;;;;;20.31;77.20;100640.47;5082358;28;20475;-63
2021/06/08 01:15:18;;;;;;;9.70;6.85;;;;;;;20.26;77.07;100645.31;5081085;28;20562;-63
2021/06/08 01:17:45;;;;;;;8.90;8.15;;;;;;;20.30;77.37;100652.03;5079128;28;20391;-63
2021/06/08 01:20:13;;;;;;;14.50;8.18;;;;;;;20.33;77.41;100646.47;5083938;28;20498;-62
2021/06/08 01:22:40;;;;;;;10.40;8.73;;;;;;;20.36;77.42;100648.88;5065252;28;20048;-62
2021/06/08 01:25:07;;;;;;;9.88;8.73;;;;;;;20.36;77.24;100651.50;5085776;28;20041;-62
2021/06/08 01:27:34;;;;;;;10.15;9.02;;;;;;;20.28;77.37;100648.66;5081226;28;20754;-62
2021/06/08 01:30:04;;;;;;;10.30;9.32;;;;;;;20.29;77.18;100645.03;5082682;28;20043;-62
2021/06/08 01:32:32;;;;;;;16.90;10.73;;;;;;;20.30;77.92;100641.44;5084659;28;20032;-62
2021/06/08 01:34:59;;;;;;;11.07;9.30;;;;;;;20.29;77.61;100645.03;5079564;28;20478;-62
2021/06/08 01:37:26;;;;;;;13.90;8.40;;;;;;;20.30;76.00;100649.38;5084071;28;20089;-63
2021/06/08 01:39:53;;;;;;;13.52;8.38;;;;;;;20.35;76.05;100649.84;5083342;28;20372;-62
2021/06/08 01:42:21;;;;;;;9.75;8.00;;;;;;;20.31;76.13;100652.88;5086915;28;20032;-62
2021/06/08 01:44:47;;;;;;;10.05;8.15;;;;;;;20.32;76.24;100647.44;5081802;28;20433;-62
2021/06/08 01:47:14;;;;;;;10.93;7.28;;;;;;;20.34;76.00;100647.28;5084280;28;20070;-62
2021/06/08 01:49:41;;;;;;;8.18;7.10;;;;;;;20.36;75.96;100653.31;5082486;28;20124;-62
2021/06/08 01:52:17;;;;;;;9.13;7.45;;;;;;;20.23;76.29;100650.00;5086431;28;20516;-62
2021/06/08 01:55:11;;;;;;;8.50;7.70;;;;;;;20.24;76.55;100649.03;5082031;28;20036;-62
2021/06/08 01:57:46;;;;;;;8.03;7.20;;;;;;;20.29;76.65;100654.78;5086054;28;20044;-62
2021/06/08 02:00:54;;;;;;;11.32;8.07;;;;;;;20.25;77.06;100651.59;5082840;28;20334;-62
2021/06/08 02:03:41;;;;;;;10.30;7.00;;;;;;;20.29;77.19;100639.75;5044342;28;20041;-62
2021/06/08 02:06:21;;;;;;;9.35;8.43;;;;;;;20.32;77.80;100649.25;5079158;28;20390;-62
2021/06/08 02:09:13;;;;;;;10.35;9.15;;;;;;;20.31;78.21;100643.13;5087968;28;20099;-62
2021/06/08 02:11:47;;;;;;;8.57;7.57;;;;;;;20.26;78.04;100645.31;5084136;28;20460;-62
2021/06/08 02:14:41;;;;;;;9.30;8.40;;;;;;;20.26;78.59;100645.31;5078124;28;20048;-62
2021/06/08 02:17:18;;;;;;;9.57;8.57;;;;;;;20.25;78.73;100638.34;5082350;28;20036;-63
2021/06/08 02:19:48;;;;;;;8.77;6.80;;;;;;;20.21;78.75;100639.56;5079994;28;20051;-64
2021/06/08 02:22:18;;;;;;;11.32;7.47;;;;;;;20.26;78.36;100642.66;5084509;28;20036;-63
2021/06/08 02:24:46;;;;;;;7.88;7.07;;;;;;;20.22;78.52;100641.25;5084142;28;20050;-62
2021/06/08 02:27:14;;;;;;;9.77;8.85;;;;;;;20.31;77.73;100650.22;5088541;28;20044;-62
2021/06/08 02:29:44;;;;;;;11.93;7.57;;;;;;;20.30;76.47;100651.19;5078262;28;20055;-62
2021/06/08 02:32:11;;;;;;;9.35;7.97;;;;;;;20.25;77.20;100642.81;5083439;28;20044;-63
2021/06/08 02:34:39;;;;;;;7.70;7.10;;;;;;;20.22;77.32;100643.03;5089214;28;20036;-62
2021/06/08 02:37:10;;;;;;;8.48;7.20;;;;;;;20.21;77.46;100647.50;5081222;28;20044;-62
2021/06/08 02:39:41;;;;;;;12.10;7.97;;;;;;;20.18;77.29;100642.44;5088927;28;20051;-61
2021/06/08 02:42:10;;;;;;;7.82;7.03;;;;;;;20.21;77.40;100647.50;5081336;28;20040;-62
2021/06/08 02:44:38;;;;;;;10.57;7.97;;;;;;;20.22;77.31;100643.03;5086149;28;20040;-62
2021/06/08 02:47:05;;;;;;;11.43;8.05;;;;;;;20.19;77.31;100645.94;5084224;28;20032;-62
2021/06/08 02:49:33;;;;;;;8.55;7.65;;;;;;;20.17;78.04;100646.06;5086872;28;20093;-62
2021/06/08 02:52:01;;;;;;;10.02;7.53;;;;;;;20.16;78.27;100652.34;5084586;28;20450;-62
2021/06/08 02:54:29;;;;;;;8.98;8.07;;;;;;;20.09;78.68;100654.66;5084894;28;20040;-62
2021/06/08 02:56:57;;;;;;;9.27;8.10;;;;;;;20.14;78.04;100651.66;5085093;28;20081;-62
2021/06/08 02:59:27;;;;;;;11.05;7.88;;;;;;;20.12;78.68;100651.75;5060940;28;20036;-62
2021/06/08 03:01:57;;;;;;;11.70;7.88;;;;;;;20.13;79.01;100652.59;5083745;28;20036;-62
2021/06/08 03:04:31;;;;;;;14.07;8.25;;;;;;;20.12;78.79;100648.25;5080167;28;20115;-63
2021/06/08 03:07:01;;;;;;;12.38;9.23;;;;;;;20.19;77.92;100653.88;5082310;28;20040;-62
2021/06/08 03:09:50;;;;;;;10.27;7.50;;;;;;;20.21;77.22;100652.81;5079955;28;20040;-62
2021/06/08 03:12:18;;;;;;;9.70;7.78;;;;;;;20.20;77.10;100652.94;5082534;28;20093;-61
2021/06/08 03:14:47;;;;;;;8.25;7.55;;;;;;;20.16;78.09;100652.34;5079962;28;20040;-61
2021/06/08 03:17:15;;;;;;;9.27;7.55;;;;;;;20.12;77.93;100658.84;5079573;28;20161;-61
2021/06/08 03:19:46;;;;;;;8.30;7.60;;;;;;;20.23;76.05;100660.59;5083929;28;20040;-62
2021/06/08 03:22:17;;;;;;;7.07;6.47;;;;;;;20.10;77.02;100656.34;5081558;28;20040;-61
2021/06/08 03:24:48;;;;;;;14.05;7.43;;;;;;;20.20;76.41;100663.53;5078844;28;20040;-61
2021/06/08 03:27:16;;;;;;;11.02;8.23;;;;;;;20.16;77.25;100660.28;5083878;28;20519;-61
2021/06/08 03:29:43;;;;;;;9.68;8.20;;;;;;;20.13;78.29;100668.47;5079194;28;20071;-60
2021/06/08 03:32:11;;;;;;;9.65;8.13;;;;;;;20.11;78.60;100663.31;5078753;28;20052;-61
2021/06/08 03:34:42;;;;;;;8.00;7.20;;;;;;;20.13;78.80;100661.41;5082028;28;20043;-61
2021/06/08 03:37:09;;;;;;;9.90;8.90;;;;;;;20.14;79.17;100663.06;5081776;28;20071;-61
2021/06/08 03:39:37;;;;;;;9.30;7.38;;;;;;;20.12;78.77;100669.44;5084834;28;20304;-61
2021/06/08 03:42:05;;;;;;;11.27;8.07;;;;;;;20.12;78.83;100669.44;5068012;28;20097;-61
2021/06/08 03:44:35;;;;;;;15.25;9.05;;;;;;;20.13;78.45;100671.13;5081706;28;20045;-61
2021/06/08 03:47:02;;;;;;;11.13;8.77;;;;;;;20.14;79.47;100675.47;5084020;28;20036;-63
2021/06/08 03:49:29;;;;;;;14.00;8.48;;;;;;;20.17;79.38;100667.25;5084839;28;20498;-64
2021/06/08 03:51:56;;;;;;;10.70;8.63;;;;;;;20.11;79.78;100665.13;5081015;28;20048;-64
2021/06/08 03:54:23;;;;;;;9.68;8.60;;;;;;;20.10;79.19;100663.44;5079929;28;20044;-60
2021/06/08 03:56:53;;;;;;;11.30;9.93;;;;;;;20.12;79.44;100669.44;5082842;28;20117;-62
2021/06/08 03:59:22;;;;;;;10.85;9.18;;;;;;;20.10;77.93;100676.69;5078317;28;20483;-61
2021/06/08 04:01:50;;;;;;;10.57;9.43;;;;;;;20.16;78.58;100673.50;5078530;28;20043;-59
2021/06/08 04:04:18;;;;;;;10.82;9.73;;;;;;;20.13;78.84;100673.75;5082751;28;20142;-61
2021/06/08 04:06:46;;;;;;;12.40;9.27;;;;;;;20.14;79.28;100672.81;5085008;28;20031;-62
2021/06/08 04:09:13;;;;;;;11.55;9.27;;;;;;;20.16;79.39;100673.50;5092779;28;20044;-62
2021/06/08 04:11:48;;;;;;;10.25;9.15;;;;;;;20.12;79.93;100669.44;5093100;28;20457;-62
2021/06/08 04:14:16;;;;;;;13.02;10.15;;;;;;;20.12;80.15;100664.16;5092418;28;20619;-62
2021/06/08 04:16:45;;;;;;;13.35;9.32;;;;;;;20.09;80.29;100670.56;5075052;28;20490;-62
2021/06/08 04:19:13;;;;;;;10.98;9.88;;;;;;;20.10;80.71;100666.94;5092912;28;20411;-62
2021/06/08 04:21:41;;;;;;;12.05;10.60;;;;;;;20.15;80.43;100677.13;5092715;28;20036;-62
2021/06/08 04:24:10;;;;;;;12.23;10.15;;;;;;;20.12;81.23;100680.03;5092865;28;20040;-62
2021/06/08 04:26:37;;;;;;;16.90;9.00;;;;;;;20.14;80.32;100676.31;5092916;28;20040;-62
2021/06/08 04:29:04;;;;;;;12.10;10.32;;;;;;;20.18;79.85;100674.22;5092498;28;20105;-62
2021/06/08 04:31:31;;;;;;;14.70;10.40;;;;;;;20.09;80.63;100667.06;5100221;28;20085;-62
2021/06/08 04:33:58;;;;;;;14.30;11.80;;;;;;;20.12;80.28;100669.44;5092835;28;20056;-63
2021/06/08 04:36:25;;;;;;;14.77;9.82;;;;;;;20.11;80.31;100667.75;5092669;28;20062;-62
2021/06/08 04:38:55;;;;;;;12.45;10.48;;;;;;;20.12;80.31;100666.78;5092994;28;20036;-62
2021/06/08 04:41:22;;;;;;;13.25;10.70;;;;;;;20.11;80.20;100668.59;5092850;28;20383;-62
2021/06/08 04:43:49;;;;;;;15.88;10.13;;;;;;;20.15;78.83;100674.50;5092090;28;20085;-63
2021/06/08 04:46:16;;;;;;;10.57;9.57;;;;;;;20.16;78.76;100678.81;5092777;28;20433;-62
2021/06/08 04:48:44;;;;;;;11.40;10.18;;;;;;;20.19;78.41;100680.34;5094149;28;20372;-62
2021/06/08 04:51:11;;;;;;;11.32;10.32;;;;;;;20.21;79.17;100679.28;5094462;28;20047;-62
2021/06/08 04:53:38;;;;;;;14.13;11.15;;;;;;;20.22;79.39;100677.47;5074337;28;20044;-62
2021/06/08 04:56:06;;;;;;;11.27;10.10;;;;;;;20.19;79.76;100675.91;5091485;28;20425;-61
2021/06/08 04:58:34;;;;;;;14.05;11.05;;;;;;;20.20;80.81;100676.75;5092278;28;20045;-60
2021/06/08 05:01:13;;;;;;;11.20;10.20;;;;;;;20.20;80.88;100679.41;5104593;28;20501;-62
2021/06/08 05:03:42;;;;;;;13.80;11.40;;;;;;;20.21;81.18;100679.28;5098267;28;20040;-61
2021/06/08 05:06:12;;;;;;;19.13;11.95;;;;;;;20.21;80.99;100676.63;5095452;28;20089;-60
2021/06/08 05:08:43;;;;;;;16.88;11.60;;;;;;;20.20;81.69;100680.25;5096794;28;20093;-61
2021/06/08 05:11:15;;;;;;;12.02;10.77;;;;;;;20.23;81.36;100687.06;5096163;28;20040;-61
2021/06/08 05:13:46;;;;;;;12.18;10.40;;;;;;;20.23;81.33;100690.56;5096213;28;20433;-61
2021/06/08 05:16:14;;;;;;;14.77;11.13;;;;;;;20.24;80.80;100689.63;5096275;28;20410;-61
2021/06/08 05:18:44;;;;;;;14.38;10.52;;;;;;;20.24;80.77;100692.25;5102983;28;20047;-62
2021/06/08 05:21:14;;;;;;;17.70;11.10;;;;;;;20.20;79.83;100682.88;5108253;28;20048;-62
2021/06/08 05:23:42;;;;;;;12.43;11.25;;;;;;;20.30;80.20;100690.91;5112408;28;20489;-62
2021/06/08 05:26:11;;;;;;;13.15;11.82;;;;;;;20.34;80.44;100694.94;5110128;28;20085;-63
2021/06/08 05:28:41;;;;;;;13.77;12.32;;;;;;;20.29;81.65;100697.16;5102995;28;20044;-66
2021/06/08 05:31:08;;;;;;;12.43;11.25;;;;;;;20.25;82.13;100707.16;5108311;28;20435;-59
2021/06/08 05:33:35;;;;;;;14.30;11.52;;;;;;;20.14;82.13;100701.94;5101818;28;20040;-60
2021/06/08 05:36:03;;;;;;;16.73;11.80;;;;;;;20.11;82.76;100700.38;5092281;28;20043;-59
2021/06/08 05:38:38;;;;;;;13.18;11.93;;;;;;;20.07;81.59;100703.38;5095373;28;20521;-59
2021/06/08 05:41:08;;;;;;;13.90;11.13;;;;;;;20.04;82.14;100706.31;5106360;28;20044;-60
2021/06/08 05:43:35;;;;;;;14.30;11.52;;;;;;;20.06;82.34;100704.34;5097784;28;20387;-59
2021/06/08 05:46:07;;;;;;;13.30;11.82;;;;;;;20.11;81.74;100705.66;5076924;28;20081;-59
2021/06/08 05:48:37;;;;;;;14.90;12.02;;;;;;;20.08;82.46;100707.69;5092679;28;20039;-59
2021/06/08 05:51:05;;;;;;;13.77;10.98;;;;;;;20.22;82.10;100706.56;5106979;28;20047;-58
2021/06/08 05:53:36;;;;;;;17.63;12.32;;;;;;;20.21;82.70;100707.53;5088439;28;20040;-58
2021/06/08 05:56:04;;;;;;;12.30;11.02;;;;;;;20.31;82.25;100704.00;5095098;28;20047;-60
2021/06/08 05:58:32;;;;;;;12.50;11.23;;;;;;;20.37;82.14;100714.06;5095377;28;20461;-60
2021/06/08 06:01:00;;;;;;;11.70;10.40;;;;;;;20.44;81.97;100710.91;5095527;28;20044;-60
2021/06/08 06:03:29;;;;;;;15.80;9.95;;;;;;;20.44;82.08;100710.91;5095097;28;20097;-61
2021/06/08 06:05:57;;;;;;;16.55;11.23;;;;;;;20.40;83.26;100719.13;5095224;28;20040;-60
2021/06/08 06:08:25;;;;;;;13.13;10.73;;;;;;;20.44;82.84;100717.03;5095427;28;20040;-60
2021/06/08 06:10:53;;;;;;;10.63;9.65;;;;;;;20.45;82.52;100721.38;5075185;28;20110;-60
2021/06/08 06:13:24;;;;;;;9.05;8.15;;;;;;;20.49;81.63;100716.69;5084153;28;20040;-59
2021/06/08 06:15:52;;;;;;;15.63;9.57;;;;;;;20.54;81.83;100727.75;5081246;28;20045;-59
2021/06/08 06:18:19;;;;;;;17.35;11.07;;;;;;;20.55;82.14;100709.06;5085094;28;20046;-59
2021/06/08 06:20:49;;;;;;;11.82;8.85;;;;;;;20.55;82.23;100719.66;5100279;28;20040;-60
2021/06/08 06:23:21;;;;;;;9.75;8.73;;;;;;;20.57;82.13;100720.38;5103180;28;20796;-59
2021/06/08 06:25:53;;;;;;;17.00;8.45;;;;;;;20.61;80.70;100723.59;5081265;28;20045;-59
2021/06/08 06:28:20;;;;;;;10.63;9.07;;;;;;;20.57;80.85;100719.56;5082180;28;20040;-59
2021/06/08 06:30:47;;;;;;;11.65;10.02;;;;;;;20.67;79.80;100720.47;5078744;28;20091;-59
2021/06/08 06:33:15;;;;;;;11.45;9.63;;;;;;;20.59;81.35;100722.91;5089518;28;20097;-59
2021/06/08 06:35:43;;;;;;;12.10;8.77;;;;;;;20.65;80.65;100725.03;5108711;28;20048;-59
2021/06/08 06:38:11;;;;;;;9.48;8.00;;;;;;;20.68;79.00;100730.06;5101334;28;20093;-58
2021/06/08 06:40:39;;;;;;;9.18;7.15;;;;;;;20.75;79.23;100719.78;5083052;28;20457;-60
2021/06/08 06:43:13;;;;;;;7.43;6.57;;;;;;;20.84;79.04;100724.31;5089133;28;20094;-60
2021/06/08 06:45:40;;;;;;;9.77;8.73;;;;;;;20.88;79.63;100729.22;5094160;28;20036;-59
2021/06/08 06:48:12;;;;;;;13.23;7.75;;;;;;;20.95;80.06;100731.34;5094046;28;20394;-60
2021/06/08 06:50:41;;;;;;;7.43;6.70;;;;;;;20.93;79.37;100731.44;5085199;28;20574;-60
2021/06/08 06:53:09;;;;;;;12.73;7.10;;;;;;;21.00;79.81;100727.31;5094042;28;20402;-64
2021/06/08 06:55:37;;;;;;;6.30;5.20;;;;;;;21.01;78.59;100728.16;5093533;28;20094;-63
2021/06/08 06:58:05;;;;;;;7.10;5.22;;;;;;;21.01;79.61;100729.00;5078242;28;20040;-65
2021/06/08 07:00:32;;;;;;;5.30;4.80;;;;;;;21.08;78.82;100737.25;5091385;28;20040;-62
2021/06/08 07:03:00;;;;;;;8.10;4.78;;;;;;;21.08;78.09;100732.78;5087044;28;20040;-61
2021/06/08 07:05:30;;;;;;;6.15;4.53;;;;;;;21.09;77.69;100744.22;5086441;28;20498;-62
2021/06/08 07:08:01;;;;;;;7.25;4.97;;;;;;;21.12;77.38;100738.69;5081754;28;20032;-62
2021/06/08 07:10:28;;;;;;;5.70;4.75;;;;;;;21.17;77.17;100742.59;5092363;28;20040;-62
2021/06/08 07:12:57;;;;;;;6.07;5.47;;;;;;;21.13;76.69;100751.78;5075085;28;20035;-62
2021/06/08 07:15:28;;;;;;;10.82;6.82;;;;;;;21.24;76.68;100748.22;5083035;28;20398;-59
2021/06/08 07:17:55;;;;;;;9.70;7.00;;;;;;;21.19;75.63;100742.47;5093299;28;20097;-61
2021/06/08 07:20:25;;;;;;;5.68;5.18;;;;;;;21.29;76.27;100740.69;5093156;28;20040;-61
2021/06/08 07:22:52;;;;;;;9.98;6.40;;;;;;;21.37;77.54;100751.53;5083560;28;20036;-62
2021/06/08 07:25:20;;;;;;;9.50;6.65;;;;;;;21.49;76.89;100754.06;5086547;28;20032;-60
2021/06/08 07:27:49;;;;;;;6.75;6.07;;;;;;;21.52;77.64;100751.13;5078105;28;20044;-61
2021/06/08 07:30:17;;;;;;;7.13;6.50;;;;;;;21.59;77.38;100750.47;5084786;28;20056;-61
2021/06/08 07:33:13;;;;;;;6.07;5.57;;;;;;;21.72;76.76;100744.91;5071565;28;20048;-59
2021/06/08 07:36:03;;;;;;;10.80;7.25;;;;;;;21.62;75.55;100752.00;5071214;28;20406;-63
2021/06/08 07:38:36;;;;;;;8.40;6.53;;;;;;;21.68;75.97;100746.19;5089600;28;20036;-59
2021/06/08 07:41:17;;;;;;;7.30;5.70;;;;;;;21.78;77.10;100740.88;5092764;28;20044;-62
2021/06/08 07:43:54;;;;;;;6.50;5.90;;;;;;;21.81;75.88;100743.25;5087777;28;20336;-60
2021/06/08 07:46:21;;;;;;;10.07;6.50;;;;;;;21.89;75.60;100748.69;5092594;28;20047;-62
2021/06/08 07:48:53;;;;;;;7.70;6.78;;;;;;;21.96;75.62;100744.53;5092267;28;20044;-61
2021/06/08 07:51:21;;;;;;;9.27;7.05;;;;;;;21.88;75.13;100739.91;5091245;28;20437;-61
2021/06/08 07:53:50;;;;;;;9.30;8.50;;;;;;;21.96;75.05;100734.75;5070832;28;20040;-62
2021/06/08 07:56:18;;;;;;;13.07;8.57;;;;;;;21.96;76.37;100745.38;5092032;28;20044;-62
2021/06/08 07:58:45;;;;;;;10.02;7.88;;;;;;;22.03;76.19;100742.16;5091563;28;20536;-61
2021/06/08 08:01:15;;;;;;;9.18;8.18;;;;;;;22.07;76.18;100746.22;5090563;28;20055;-62
2021/06/08 08:03:42;;;;;;;13.35;7.32;;;;;;;22.10;76.77;100743.28;5089940;28;20047;-62
2021/06/08 08:06:11;;;;;;;10.52;8.25;;;;;;;22.11;75.71;100743.19;5072817;28;20047;-63
2021/06/08 08:08:54;;;;;;;8.35;7.55;;;;;;;22.17;74.23;100741.78;5056045;28;20487;-63
2021/06/08 08:11:22;;;;;;;9.30;8.43;;;;;;;22.18;74.64;100738.16;5091102;28;20047;-64
2021/06/08 08:13:51;;;;;;;8.23;6.95;;;;;;;22.27;73.79;100741.81;5089602;28;20437;-63
2021/06/08 08:16:18;;;;;;;8.48;7.28;;;;;;;22.28;74.06;100741.66;5089558;28;20502;-64
2021/06/08 08:18:46;;;;;;;7.90;7.20;;;;;;;22.30;74.64;100742.34;5090136;28;20071;-63
2021/06/08 08:21:16;;;;;;;8.43;7.63;;;;;;;22.37;75.43;100743.47;5089753;28;20048;-61
2021/06/08 08:23:44;;;;;;;9.63;7.03;;;;;;;22.39;73.29;100743.31;5090561;28;20119;-62
2021/06/08 08:26:11;;;;;;;7.90;7.10;;;;;;;22.41;72.33;100742.19;5090534;28;20040;-62
2021/06/08 08:28:42;;;;;;;7.78;6.50;;;;;;;22.42;72.45;100740.38;5084734;28;20040;-62
2021/06/08 08:31:14;;;;;;;9.45;7.38;;;;;;;22.53;72.87;100750.00;5086272;28;20452;-61
2021/06/08 08:33:45;;;;;;;9.05;7.03;;;;;;;22.58;72.37;100753.06;5086495;28;20454;-62
2021/06/08 08:36:13;;;;;;;9.18;6.50;;;;;;;22.60;72.51;100754.63;5091664;28;20050;-62
2021/06/08 08:38:40;;;;;;;7.78;7.07;;;;;;;22.58;71.11;100742.44;5091568;28;20036;-61
2021/06/08 08:41:08;;;;;;;8.27;7.47;;;;;;;22.71;71.50;100745.66;5096406;28;20036;-61
2021/06/08 08:43:48;;;;;;;10.35;8.07;;;;;;;22.86;72.08;100749.53;5095085;28;20048;-62
2021/06/08 08:46:16;;;;;;;8.07;7.15;;;;;;;22.96;72.21;100744.25;5095592;28;20048;-62
2021/06/08 08:48:45;;;;;;;7.88;7.18;;;;;;;22.95;72.28;100746.03;5095448;28;20040;-62
2021/06/08 08:51:14;;;;;;;7.53;6.53;;;;;;;23.00;70.48;100735.81;5095465;28;20040;-63
2021/06/08 08:53:43;;;;;;;8.68;6.78;;;;;;;23.09;70.08;100742.09;5093079;28;20036;-61
2021/06/08 08:56:42;;;;;;;7.65;6.80;;;;;;;23.19;70.72;100728.75;5095199;28;20089;-62
2021/06/08 08:59:15;;;;;;;8.98;6.35;;;;;;;23.26;70.34;100727.19;5090265;28;20055;-61
2021/06/08 09:01:46;;;;;;;11.65;6.95;;;;;;;23.31;70.05;100727.56;5083525;28;20068;-60
2021/06/08 09:04:14;;;;;;;7.43;6.75;;;;;;;23.50;68.63;100726.66;5082666;28;20470;-59
2021/06/08 09:06:41;;;;;;;7.75;6.03;;;;;;;23.63;67.98;100726.31;5082298;28;20090;-62
2021/06/08 09:09:10;;;;;;;10.23;5.95;;;;;;;23.76;68.17;100732.97;5083189;28;20085;-60
2021/06/08 09:11:40;;;;;;;6.47;5.97;;;;;;;23.82;67.22;100728.88;5083360;28;20043;-60
2021/06/08 09:14:09;;;;;;;7.70;5.65;;;;;;;23.93;65.83;100730.47;5095664;28;20044;-60
2021/06/08 09:16:36;;;;;;;6.82;6.22;;;;;;;24.01;65.93;100727.88;5094971;28;20518;-60
2021/06/08 09:19:08;;;;;;;7.45;6.30;;;;;;;24.01;67.02;100731.38;5098450;28;20136;-60
2021/06/08 09:21:38;;;;;;;8.18;6.50;;;;;;;24.11;65.43;100725.97;5093943;28;20044;-60
2021/06/08 09:24:27;;;;;;;6.75;5.82;;;;;;;24.14;63.42;100731.00;5095432;28;20102;-60
2021/06/08 09:26:59;;;;;;;13.32;6.28;;;;;;;24.27;65.35;100726.13;5098761;28;20101;-60
2021/06/08 09:29:52;;;;;;;9.13;6.10;;;;;;;24.37;63.26;100726.06;5106133;28;20478;-61
2021/06/08 09:32:25;;;;;;;6.50;5.70;;;;;;;24.46;62.04;100725.16;5090307;28;20457;-61
2021/06/08 09:34:56;;;;;;;9.43;7.17;;;;;;;24.43;61.02;100721.94;5094893;28;20040;-62
2021/06/08 09:37:41;;;;;;;9.55;6.20;;;;;;;24.46;61.43;100724.31;5094431;28;20290;-61
2021/06/08 09:40:20;;;;;;;9.73;5.13;;;;;;;24.68;61.97;100717.63;5094283;28;20121;-61
2021/06/08 09:42:48;;;;;;;6.72;5.05;;;;;;;24.77;61.68;100716.69;5094650;28;20036;-62
2021/06/08 09:45:22;;;;;;;8.98;5.28;;;;;;;24.98;61.80;100716.28;5093996;28;20035;-63
2021/06/08 09:48:00;;;;;;;5.18;4.68;;;;;;;25.05;61.88;100717.34;5094187;28;20476;-62
2021/06/08 09:50:45;;;;;;;6.88;6.28;;;;;;;25.06;60.37;100719.06;5095620;28;20062;-61
2021/06/08 09:53:18;;;;;;;8.00;5.78;;;;;;;25.05;59.92;100710.19;5093630;28;20048;-62
2021/06/08 09:56:03;;;;;;;9.38;6.95;;;;;;;25.11;60.11;100722.06;5074503;28;20468;-62
2021/06/08 09:58:31;;;;;;;7.25;6.55;;;;;;;24.92;59.51;100712.44;5092195;28;20043;-61
2021/06/08 10:01:10;;;;;;;9.82;7.72;;;;;;;24.87;59.89;100717.41;5103111;28;20044;-63
2021/06/08 10:03:45;;;;;;;6.93;6.25;;;;;;;24.95;60.87;100705.97;5095550;28;20047;-64
2021/06/08 10:06:14;;;;;;;8.63;6.55;;;;;;;25.03;61.08;100709.50;5097500;28;20417;-62
2021/06/08 10:08:58;;;;;;;8.30;7.50;;;;;;;25.01;59.78;100711.50;5105405;28;20496;-63
2021/06/08 10:11:27;;;;;;;7.50;5.85;;;;;;;25.05;61.15;100694.19;5101609;28;20048;-63
2021/06/08 10:14:08;;;;;;;8.52;7.53;;;;;;;24.99;59.15;100694.81;5094458;28;20062;-62
2021/06/08 10:16:35;;;;;;;7.85;6.85;;;;;;;25.01;59.94;100694.66;5100080;28;20089;-62
2021/06/08 10:19:03;;;;;;;7.55;5.78;;;;;;;25.13;61.15;100695.22;5097202;28;20027;-63
2021/06/08 10:21:47;;;;;;;6.53;5.13;;;;;;;25.19;59.73;100699.91;5077170;28;20036;-63
2021/06/08 10:24:23;;;;;;;9.57;4.95;;;;;;;25.08;58.54;100695.72;5106532;28;20039;-61
2021/06/08 10:26:52;;;;;;;6.68;5.72;;;;;;;25.12;58.85;100686.41;5102961;28;20090;-62
2021/06/08 10:29:24;;;;;;;7.05;5.72;;;;;;;25.15;58.05;100687.94;5100992;28;20043;-68
2021/06/08 10:31:53;;;;;;;9.20;7.60;;;;;;;25.03;57.58;100695.31;5103621;28;20074;-62
2021/06/08 10:34:37;;;;;;;6.13;5.53;;;;;;;25.08;58.41;100693.88;5098983;28;20040;-63
2021/06/08 10:37:05;;;;;;;6.03;5.43;;;;;;;25.15;58.08;100687.94;5106225;28;20055;-63
2021/06/08 10:39:34;;;;;;;7.00;6.40;;;;;;;25.19;58.48;100689.25;5094290;28;20036;-62
2021/06/08 10:42:01;;;;;;;9.20;6.80;;;;;;;25.07;57.49;100688.72;5082077;28;20049;-62
2021/06/08 10:44:29;;;;;;;7.65;6.28;;;;;;;25.15;57.87;100677.25;5086370;28;20106;-60
2021/06/08 10:47:06;;;;;;;7.35;5.78;;;;;;;25.21;57.53;100677.44;5087963;28;20139;-62
2021/06/08 10:49:39;;;;;;;10.07;6.13;;;;;;;25.34;58.16;100676.97;5078862;28;20040;-62
2021/06/08 10:52:11;;;;;;;7.03;6.35;;;;;;;25.25;58.14;100672.63;5088422;28;20044;-63
2021/06/08 10:54:41;;;;;;;9.05;7.30;;;;;;;25.28;58.13;100672.28;5088886;28;20127;-63
2021/06/08 10:57:13;;;;;;;8.38;7.57;;;;;;;25.13;57.70;100669.41;5091811;28;20040;-63
2021/06/08 10:59:43;;;;;;;8.02;7.28;;;;;;;25.00;56.56;100672.47;5086268;28;20509;-62
2021/06/08 11:02:13;;;;;;;9.82;5.85;;;;;;;25.15;55.44;100669.25;5098623;28;20040;-63
2021/06/08 11:04:52;;;;;;;8.90;5.57;;;;;;;25.23;55.04;100658.59;5100668;28;20414;-63
2021/06/08 11:07:51;;;;;;;6.63;5.97;;;;;;;25.28;54.78;100667.78;5091529;28;20043;-65
2021/06/08 11:10:29;;;;;;;6.72;5.70;;;;;;;25.47;55.99;100666.69;5096427;28;20036;-63
2021/06/08 11:13:12;;;;;;;9.98;7.55;;;;;;;25.42;54.85;100662.84;5091896;28;20062;-63
2021/06/08 11:15:42;;;;;;;8.90;6.45;;;;;;;25.58;54.67;100663.69;5106105;28;20048;-63
2021/06/08 11:18:18;;;;;;;7.85;5.65;;;;;;;25.70;55.21;100660.72;5103076;28;20105;-63
2021/06/08 11:20:47;;;;;;;7.80;5.03;;;;;;;25.74;55.27;100659.41;5094167;28;20416;-63
2021/06/08 11:23:43;;;;;;;5.82;4.97;;;;;;;25.66;53.90;100651.34;5105337;28;20039;-63
2021/06/08 11:26:13;;;;;;;7.63;5.38;;;;;;;25.54;52.25;100651.69;5099652;28;20529;-63
2021/06/08 11:28:44;;;;;;;8.77;5.30;;;;;;;25.57;51.98;100647.84;5102740;28;20043;-63
2021/06/08 11:31:12;;;;;;;8.05;5.82;;;;;;;25.52;52.49;100643.00;5112549;28;20451;-63
2021/06/08 11:33:42;;;;;;;5.68;5.18;;;;;;;25.65;53.20;100647.84;5100471;28;20044;-63
2021/06/08 11:36:17;;;;;;;6.40;5.50;;;;;;;25.65;53.08;100637.19;5107110;28;20055;-63